createdAt,value
2018-06-30T00:00:56.753Z,11.68
2018-06-30T00:03:46.105Z,11.32
2018-06-30T00:06:19.771Z,11.10
2018-06-30T00:08:51.333Z,12.55
2018-06-30T00:11:22.828Z,11.07
2018-06-30T00:13:56.280Z,12.40
2018-06-30T00:16:27.890Z,12.55
2018-06-30T00:18:59.529Z,12.37
2018-06-30T00:21:31.431Z,12.30
2018-06-30T00:24:03.109Z,12.37
2018-06-30T00:26:36.260Z,12.57
2018-06-30T00:29:09.449Z,11.75
2018-06-30T00:31:42.558Z,11.48
2018-06-30T00:34:15.501Z,12.20
2018-06-30T00:36:47.754Z,12.55
2018-06-30T00:39:19.945Z,11.40
2018-06-30T00:41:54.358Z,11.65
2018-06-30T00:44:25.825Z,12.40
2018-06-30T00:46:57.580Z,12.07
2018-06-30T00:49:32.205Z,12.95
2018-06-30T00:52:06.898Z,12.70
2018-06-30T00:54:38.493Z,13.15
2018-06-30T00:57:10.022Z,12.43
2018-06-30T00:59:44.431Z,13.38
2018-06-30T01:02:17.413Z,13.77
2018-06-30T01:04:48.911Z,13.15
2018-06-30T01:07:18.920Z,13.65
2018-06-30T01:09:51.874Z,12.80
2018-06-30T01:12:25.078Z,12.50
2018-06-30T01:14:56.917Z,13.13
2018-06-30T01:17:30.524Z,12.13
2018-06-30T01:20:00.586Z,13.25
2018-06-30T01:22:31.204Z,11.95
2018-06-30T01:25:04.037Z,11.35
2018-06-30T01:27:35.957Z,12.37
2018-06-30T01:30:12.495Z,11.55
2018-06-30T01:32:45.468Z,12.00
2018-06-30T01:35:18.447Z,13.20
2018-06-30T01:37:50.018Z,14.25
2018-06-30T01:40:22.964Z,13.75
2018-06-30T01:42:54.584Z,14.55
2018-06-30T01:45:27.625Z,14.30
2018-06-30T01:48:00.641Z,14.57
2018-06-30T01:50:30.790Z,14.32
2018-06-30T01:53:03.840Z,14.95
2018-06-30T01:55:35.617Z,14.40
2018-06-30T01:58:07.796Z,15.23
2018-06-30T02:00:40.126Z,14.52
2018-06-30T02:03:11.669Z,14.55
2018-06-30T02:05:46.183Z,12.77
2018-06-30T02:08:17.690Z,16.00
2018-06-30T02:10:47.863Z,14.38
2018-06-30T02:13:20.830Z,13.40
2018-06-30T02:15:54.154Z,13.10
2018-06-30T02:18:27.200Z,12.43
2018-06-30T02:21:00.778Z,14.63
2018-06-30T02:23:33.271Z,16.52
2018-06-30T02:26:03.402Z,17.25
2018-06-30T02:28:36.487Z,16.50
2018-06-30T02:31:09.777Z,15.27
2018-06-30T02:33:42.931Z,16.12
2018-06-30T02:36:15.917Z,16.33
2018-06-30T02:38:50.753Z,18.40
2018-06-30T02:41:23.861Z,17.62
2018-06-30T02:43:57.276Z,17.90
2018-06-30T02:46:28.695Z,18.10
2018-06-30T02:49:01.757Z,18.87
2018-06-30T02:51:34.186Z,18.70
2018-06-30T02:54:06.824Z,18.75
2018-06-30T02:56:38.299Z,17.12
2018-06-30T02:59:11.692Z,19.00
2018-06-30T03:01:44.915Z,19.70
2018-06-30T03:04:16.484Z,18.33
2018-06-30T03:06:48.000Z,19.55
2018-06-30T03:09:19.527Z,18.75
2018-06-30T03:11:52.678Z,20.55
2018-06-30T03:14:24.343Z,19.02
2018-06-30T03:16:55.939Z,19.35
2018-06-30T03:19:25.919Z,19.50
2018-06-30T03:21:56.870Z,19.37
2018-06-30T03:24:29.865Z,18.35
2018-06-30T03:27:02.108Z,19.95
2018-06-30T03:29:34.119Z,18.10
2018-06-30T03:32:08.793Z,17.83
2018-06-30T03:34:41.430Z,18.15
2018-06-30T03:37:12.890Z,18.33
2018-06-30T03:39:44.526Z,17.52
2018-06-30T03:42:17.675Z,19.42
2018-06-30T03:44:50.969Z,24.27
2018-06-30T03:47:22.554Z,21.60
2018-06-30T03:49:56.041Z,18.23
2018-06-30T03:52:27.437Z,18.52
2018-06-30T03:55:01.774Z,17.33
2018-06-30T03:57:36.209Z,17.95
2018-06-30T04:00:08.865Z,16.48
2018-06-30T04:02:39.386Z,16.00
2018-06-30T04:05:12.344Z,16.40
2018-06-30T04:07:45.554Z,16.95
2018-06-30T04:10:17.019Z,16.52
2018-06-30T04:12:49.978Z,15.65
2018-06-30T04:15:21.532Z,15.68
2018-06-30T04:17:56.941Z,15.80
2018-06-30T04:20:28.951Z,15.80
2018-06-30T04:23:02.111Z,16.02
2018-06-30T04:25:33.608Z,16.33
2018-06-30T04:28:03.999Z,15.43
2018-06-30T04:30:35.426Z,14.45
2018-06-30T04:33:10.626Z,15.50
2018-06-30T04:35:43.409Z,14.82
2018-06-30T04:38:17.953Z,15.65
2018-06-30T04:40:48.457Z,15.30
2018-06-30T04:43:21.584Z,14.15
2018-06-30T04:45:54.660Z,14.98
2018-06-30T04:48:26.138Z,15.02
2018-06-30T04:50:58.164Z,15.20
2018-06-30T04:53:29.833Z,15.13
2018-06-30T04:56:01.217Z,14.50
2018-06-30T04:58:34.166Z,13.70
2018-06-30T05:01:07.194Z,15.73
2018-06-30T05:03:38.669Z,13.52
2018-06-30T05:06:13.436Z,14.43
2018-06-30T05:08:47.818Z,15.18
2018-06-30T05:11:19.188Z,16.17
2018-06-30T05:13:50.675Z,14.38
2018-06-30T05:16:21.114Z,14.75
2018-06-30T05:18:54.520Z,14.07
2018-06-30T05:21:28.789Z,13.70
2018-06-30T05:24:03.125Z,14.70
2018-06-30T05:26:35.916Z,14.95
2018-06-30T05:29:09.303Z,14.23
2018-06-30T05:31:40.940Z,14.77
2018-06-30T05:34:12.355Z,13.10
2018-06-30T05:36:45.244Z,13.05
2018-06-30T05:39:18.162Z,14.40
2018-06-30T05:41:48.105Z,13.13
2018-06-30T05:44:20.062Z,13.48
2018-06-30T05:46:53.162Z,13.15
2018-06-30T05:49:26.304Z,13.55
2018-06-30T05:51:56.285Z,14.23
2018-06-30T05:54:29.383Z,13.90
2018-06-30T05:57:00.785Z,13.05
2018-06-30T05:59:33.920Z,12.00
2018-06-30T06:02:05.374Z,12.27
2018-06-30T06:04:38.267Z,12.37
2018-06-30T06:07:11.406Z,12.10
2018-06-30T06:09:40.704Z,11.85
2018-06-30T06:12:10.650Z,11.23
2018-06-30T06:14:42.415Z,13.82
2018-06-30T06:17:15.309Z,11.85
2018-06-30T06:19:48.451Z,11.43
2018-06-30T06:22:18.459Z,13.27
2018-06-30T06:24:51.394Z,11.68
2018-06-30T06:27:24.800Z,11.55
2018-06-30T06:29:54.659Z,11.30
2018-06-30T06:32:26.106Z,11.23
2018-06-30T06:34:56.039Z,10.55
2018-06-30T06:37:27.461Z,10.45
2018-06-30T06:40:00.531Z,11.20
2018-06-30T06:42:33.417Z,11.23
2018-06-30T06:45:04.338Z,11.12
2018-06-30T06:47:35.839Z,10.23
2018-06-30T06:50:06.164Z,10.13
2018-06-30T06:52:37.645Z,10.90
2018-06-30T06:55:09.069Z,9.52
2018-06-30T06:57:39.083Z,10.07
2018-06-30T07:00:12.018Z,9.63
2018-06-30T07:02:44.998Z,9.57
2018-06-30T07:05:16.439Z,9.73
2018-06-30T07:07:45.888Z,11.10
2018-06-30T07:10:20.378Z,11.87
2018-06-30T07:12:51.802Z,9.93
2018-06-30T07:15:24.729Z,10.35
2018-06-30T07:17:56.093Z,9.80
2018-06-30T07:20:27.568Z,8.90
2018-06-30T07:23:01.926Z,8.88
2018-06-30T07:25:33.370Z,9.02
2018-06-30T07:28:04.843Z,9.77
2018-06-30T07:30:34.895Z,9.40
2018-06-30T07:33:06.287Z,8.27
2018-06-30T07:35:39.166Z,7.87
2018-06-30T07:38:09.062Z,8.90
2018-06-30T07:40:40.349Z,8.73
2018-06-30T07:43:11.034Z,8.93
2018-06-30T07:45:42.444Z,9.07
2018-06-30T07:48:15.261Z,8.52
2018-06-30T07:50:48.213Z,8.07
2018-06-30T07:53:21.022Z,8.60
2018-06-30T07:55:52.499Z,8.45
2018-06-30T07:58:24.503Z,8.75
2018-06-30T08:00:56.816Z,8.82
2018-06-30T08:03:29.967Z,8.65
2018-06-30T08:06:02.804Z,8.48
2018-06-30T08:08:32.701Z,8.32
2018-06-30T08:11:03.045Z,8.80
2018-06-30T08:13:34.419Z,7.40
2018-06-30T08:16:05.300Z,8.15
2018-06-30T08:18:34.471Z,7.80
2018-06-30T08:21:06.068Z,7.37
2018-06-30T08:23:36.000Z,7.85
2018-06-30T08:26:07.436Z,7.28
2018-06-30T08:28:38.768Z,7.25
2018-06-30T08:31:11.560Z,7.60
2018-06-30T08:33:44.385Z,7.95
2018-06-30T08:36:17.342Z,7.35
2018-06-30T08:38:48.788Z,7.10
2018-06-30T08:41:21.614Z,7.87
2018-06-30T08:43:52.996Z,8.73
2018-06-30T08:46:24.553Z,8.00
2018-06-30T08:48:57.366Z,6.90
2018-06-30T08:51:27.316Z,7.87
2018-06-30T08:53:58.748Z,7.43
2018-06-30T08:56:30.139Z,6.85
2018-06-30T08:59:01.481Z,6.68
2018-06-30T09:01:34.233Z,7.20
2018-06-30T09:04:07.548Z,7.68
2018-06-30T09:06:40.558Z,6.95
2018-06-30T09:09:13.886Z,7.32
2018-06-30T09:11:45.217Z,6.10
2018-06-30T09:14:16.561Z,6.05
2018-06-30T09:16:49.361Z,6.12
2018-06-30T09:19:22.133Z,5.00
2018-06-30T09:21:55.373Z,5.40
2018-06-30T09:24:26.760Z,5.45
2018-06-30T09:27:01.358Z,4.65
2018-06-30T09:29:32.751Z,5.18
2018-06-30T09:32:05.572Z,5.07
2018-06-30T09:34:37.244Z,4.62
2018-06-30T09:37:08.744Z,4.18
2018-06-30T09:39:43.133Z,4.72
2018-06-30T09:42:16.069Z,4.80
2018-06-30T09:44:46.424Z,4.35
2018-06-30T09:47:20.831Z,4.62
2018-06-30T09:49:53.951Z,4.55
2018-06-30T09:52:26.176Z,4.45
2018-06-30T09:54:59.188Z,3.87
2018-06-30T09:57:31.892Z,3.40
2018-06-30T10:00:03.212Z,3.80
2018-06-30T10:02:34.955Z,3.03
2018-06-30T10:05:07.908Z,2.97
2018-06-30T10:07:40.743Z,3.22
2018-06-30T10:10:14.125Z,4.00
2018-06-30T10:12:47.127Z,3.22
2018-06-30T10:15:21.569Z,3.70
2018-06-30T10:17:53.449Z,3.37
2018-06-30T10:20:24.836Z,3.80
2018-06-30T10:22:58.555Z,3.90
2018-06-30T10:25:29.945Z,3.97
2018-06-30T10:28:02.898Z,3.20
2018-06-30T10:30:34.586Z,3.40
2018-06-30T10:33:06.495Z,3.53
2018-06-30T10:35:36.889Z,3.33
2018-06-30T10:38:09.974Z,3.40
2018-06-30T10:40:42.768Z,3.53
2018-06-30T10:43:13.242Z,2.70
2018-06-30T10:45:44.619Z,3.80
2018-06-30T10:48:14.630Z,3.22
2018-06-30T10:50:45.999Z,3.15
2018-06-30T10:53:18.856Z,3.53
2018-06-30T10:55:53.321Z,3.58
2018-06-30T10:58:25.450Z,3.45
2018-06-30T11:00:59.789Z,3.42
2018-06-30T11:03:31.534Z,3.55
2018-06-30T11:06:04.369Z,3.53
2018-06-30T11:08:36.067Z,3.50
2018-06-30T11:11:06.159Z,3.20
2018-06-30T11:13:38.945Z,2.95
2018-06-30T11:16:11.770Z,3.00
2018-06-30T11:18:43.401Z,2.97
2018-06-30T11:21:16.208Z,3.20
2018-06-30T11:23:49.194Z,3.60
2018-06-30T11:26:20.479Z,3.10
2018-06-30T11:28:51.975Z,3.15
2018-06-30T11:31:24.813Z,3.28
2018-06-30T11:33:57.580Z,3.20
2018-06-30T11:36:27.463Z,3.03
2018-06-30T11:39:00.404Z,3.05
2018-06-30T11:41:30.268Z,3.35
2018-06-30T11:44:03.166Z,3.37
2018-06-30T11:46:37.730Z,3.35
2018-06-30T11:49:09.756Z,3.03
2018-06-30T11:51:41.181Z,2.95
2018-06-30T11:54:11.110Z,3.67
2018-06-30T11:56:42.635Z,3.50
2018-06-30T11:59:13.069Z,3.17
2018-06-30T12:01:44.409Z,2.80
2018-06-30T12:04:17.239Z,3.35
2018-06-30T12:06:51.541Z,3.12
2018-06-30T12:09:24.420Z,2.78
2018-06-30T12:11:57.586Z,3.40
2018-06-30T12:14:30.384Z,2.85
2018-06-30T12:17:04.632Z,2.75
2018-06-30T12:19:36.702Z,2.90
2018-06-30T12:22:09.747Z,2.85
2018-06-30T12:24:42.676Z,3.22
2018-06-30T12:27:14.026Z,2.55
2018-06-30T12:29:48.376Z,2.60
2018-06-30T12:32:21.274Z,2.92
2018-06-30T12:34:54.036Z,2.97
2018-06-30T12:37:26.963Z,3.30
2018-06-30T12:40:00.092Z,2.80
2018-06-30T12:42:31.432Z,2.42
2018-06-30T12:45:04.625Z,2.70
2018-06-30T12:47:37.352Z,2.62
2018-06-30T12:50:09.258Z,2.17
2018-06-30T12:52:40.657Z,2.72
2018-06-30T12:55:12.110Z,2.80
2018-06-30T12:57:43.469Z,2.70
2018-06-30T13:00:16.421Z,2.40
2018-06-30T13:02:49.216Z,2.37
2018-06-30T13:05:20.880Z,2.50
2018-06-30T13:07:54.010Z,2.42
2018-06-30T13:10:25.477Z,2.60
2018-06-30T13:12:56.871Z,2.55
2018-06-30T13:15:28.318Z,2.35
2018-06-30T13:17:59.853Z,2.30
2018-06-30T13:20:33.397Z,2.20
2018-06-30T13:23:06.642Z,2.37
2018-06-30T13:25:38.004Z,2.53
2018-06-30T13:28:10.930Z,2.35
2018-06-30T13:30:44.121Z,1.67
2018-06-30T13:33:15.563Z,2.10
2018-06-30T13:35:45.452Z,1.87
2018-06-30T13:38:18.386Z,2.20
2018-06-30T13:40:48.326Z,1.92
2018-06-30T13:43:19.761Z,2.10
2018-06-30T13:45:54.073Z,1.87
2018-06-30T13:48:26.898Z,2.00
2018-06-30T13:50:59.817Z,1.75
2018-06-30T13:53:31.213Z,1.42
2018-06-30T13:56:02.906Z,1.90
2018-06-30T13:58:35.148Z,1.87
2018-06-30T14:01:06.618Z,1.75
2018-06-30T14:03:39.704Z,1.50
2018-06-30T14:06:09.517Z,1.67
2018-06-30T14:08:43.875Z,1.42
2018-06-30T14:11:15.635Z,1.87
2018-06-30T14:13:48.684Z,2.05
2018-06-30T14:16:21.527Z,1.90
2018-06-30T14:18:53.033Z,1.50
2018-06-30T14:21:24.567Z,1.70
2018-06-30T14:23:55.995Z,1.70
2018-06-30T14:26:25.630Z,1.65
2018-06-30T14:28:58.770Z,1.73
2018-06-30T14:31:28.744Z,2.08
2018-06-30T14:34:01.709Z,1.70
2018-06-30T14:36:35.048Z,1.33
2018-06-30T14:39:05.847Z,1.20
2018-06-30T14:41:37.828Z,1.20
2018-06-30T14:44:10.842Z,1.70
2018-06-30T14:46:42.251Z,1.50
2018-06-30T14:49:15.259Z,1.40
2018-06-30T14:51:46.640Z,1.33
2018-06-30T14:54:16.704Z,1.33
2018-06-30T14:56:48.642Z,1.48
2018-06-30T14:59:20.445Z,1.40
2018-06-30T15:01:53.323Z,1.40
2018-06-30T15:04:26.060Z,1.40
2018-06-30T15:06:57.575Z,1.30
2018-06-30T15:09:26.692Z,1.52
2018-06-30T15:11:56.571Z,1.25
2018-06-30T15:14:29.379Z,1.17
2018-06-30T15:17:00.683Z,1.48
2018-06-30T15:19:32.097Z,1.50
2018-06-30T15:22:03.992Z,1.45
2018-06-30T15:24:36.982Z,1.40
2018-06-30T15:27:11.459Z,1.20
2018-06-30T15:29:44.268Z,1.30
2018-06-30T15:32:16.317Z,1.30
2018-06-30T15:34:47.675Z,1.40
2018-06-30T15:37:22.036Z,1.20
2018-06-30T15:39:55.326Z,1.00
2018-06-30T15:42:25.188Z,1.27
2018-06-30T15:44:58.047Z,0.93
2018-06-30T15:47:30.964Z,1.30
2018-06-30T15:50:02.857Z,1.20
2018-06-30T15:52:36.260Z,1.02
2018-06-30T15:55:09.388Z,1.10
2018-06-30T15:57:42.165Z,1.17
2018-06-30T16:00:15.012Z,1.10
2018-06-30T16:02:49.241Z,0.90
2018-06-30T16:05:22.258Z,1.10
2018-06-30T16:07:53.552Z,1.00
2018-06-30T16:10:26.440Z,1.10
2018-06-30T16:12:58.464Z,1.00
2018-06-30T16:15:29.023Z,1.25
2018-06-30T16:18:01.832Z,0.98
2018-06-30T16:20:36.657Z,1.00
2018-06-30T16:23:09.664Z,1.27
2018-06-30T16:25:40.988Z,1.00
2018-06-30T16:28:13.438Z,1.02
2018-06-30T16:30:46.343Z,0.90
2018-06-30T16:33:20.609Z,0.93
2018-06-30T16:35:50.544Z,1.00
2018-06-30T16:38:26.030Z,0.80
2018-06-30T16:40:59.038Z,0.90
2018-06-30T16:43:32.321Z,0.70
2018-06-30T16:46:02.820Z,1.10
2018-06-30T16:48:35.617Z,1.20
2018-06-30T16:51:07.299Z,1.12
2018-06-30T16:53:41.688Z,1.20
2018-06-30T16:56:14.670Z,1.02
2018-06-30T16:58:44.732Z,0.90
2018-06-30T17:01:17.668Z,0.90
2018-06-30T17:03:50.489Z,0.80
2018-06-30T17:06:21.889Z,1.12
2018-06-30T17:08:52.465Z,1.20
2018-06-30T17:11:26.744Z,0.98
2018-06-30T17:13:58.124Z,0.90
2018-06-30T17:16:30.910Z,0.85
2018-06-30T17:19:03.794Z,0.80
2018-06-30T17:21:36.196Z,0.77
2018-06-30T17:24:09.115Z,1.10
2018-06-30T17:26:40.869Z,0.90
2018-06-30T17:29:13.551Z,0.80
2018-06-30T17:31:44.997Z,0.93
2018-06-30T17:34:16.398Z,0.77
2018-06-30T17:36:47.864Z,0.90
2018-06-30T17:39:22.116Z,1.05
2018-06-30T17:41:56.762Z,0.90
2018-06-30T17:44:29.563Z,0.70
2018-06-30T17:47:00.860Z,0.73
2018-06-30T17:49:32.317Z,0.80
2018-06-30T17:52:02.200Z,0.80
2018-06-30T17:54:32.130Z,0.85
2018-06-30T17:57:03.818Z,1.02
2018-06-30T17:59:35.269Z,0.90
2018-06-30T18:02:05.368Z,1.25
2018-06-30T18:04:38.063Z,0.90
2018-06-30T18:07:11.503Z,1.02
2018-06-30T18:09:44.457Z,0.80
2018-06-30T18:12:17.326Z,0.80
2018-06-30T18:14:51.790Z,0.90
2018-06-30T18:17:26.216Z,1.00
2018-06-30T18:19:57.608Z,1.00
2018-06-30T18:22:30.509Z,1.10
2018-06-30T18:25:00.422Z,0.90
2018-06-30T18:27:34.662Z,1.00
2018-06-30T18:30:06.094Z,0.90
2018-06-30T18:32:39.007Z,1.58
2018-06-30T18:35:11.973Z,1.02
2018-06-30T18:37:41.292Z,0.80
2018-06-30T18:40:12.737Z,0.80
2018-06-30T18:42:45.564Z,1.17
2018-06-30T18:45:16.984Z,1.02
2018-06-30T18:47:49.856Z,0.95
2018-06-30T18:50:24.202Z,1.30
2018-06-30T18:52:57.074Z,0.95
2018-06-30T18:55:29.963Z,1.10
2018-06-30T18:58:00.332Z,0.93
2018-06-30T19:00:32.007Z,1.30
2018-06-30T19:03:05.030Z,1.00
2018-06-30T19:05:38.308Z,1.00
2018-06-30T19:08:10.327Z,1.10
2018-06-30T19:10:43.242Z,1.08
2018-06-30T19:13:16.160Z,1.00
2018-06-30T19:15:47.728Z,1.10
2018-06-30T19:18:20.651Z,0.90
2018-06-30T19:20:53.990Z,1.10
2018-06-30T19:23:26.896Z,0.73
2018-06-30T19:25:58.864Z,0.90
2018-06-30T19:28:28.766Z,0.80
2018-06-30T19:31:00.712Z,0.80
2018-06-30T19:33:32.180Z,0.98
2018-06-30T19:36:05.047Z,0.80
2018-06-30T19:38:36.520Z,1.00
2018-06-30T19:41:09.507Z,0.95
2018-06-30T19:43:42.310Z,0.95
2018-06-30T19:46:15.627Z,0.95
2018-06-30T19:48:47.174Z,0.85
2018-06-30T19:51:18.518Z,0.93
2018-06-30T19:53:51.850Z,0.88
2018-06-30T19:56:23.784Z,0.90
2018-06-30T19:58:56.745Z,0.98
2018-06-30T20:01:31.878Z,0.80
2018-06-30T20:04:04.960Z,0.75
2018-06-30T20:06:39.444Z,0.80
2018-06-30T20:09:14.116Z,1.00
2018-06-30T20:11:44.572Z,0.88
2018-06-30T20:14:14.492Z,0.80
2018-06-30T20:16:46.484Z,0.90
2018-06-30T20:19:19.490Z,1.30
2018-06-30T20:21:50.839Z,0.90
2018-06-30T20:24:23.753Z,1.10
2018-06-30T20:26:56.642Z,1.00
2018-06-30T20:29:29.253Z,0.90
2018-06-30T20:32:02.783Z,0.93
2018-06-30T20:34:34.236Z,1.20
2018-06-30T20:37:05.708Z,0.60
2018-06-30T20:39:38.190Z,0.82
2018-06-30T20:42:09.549Z,1.00
2018-06-30T20:44:40.943Z,0.95
2018-06-30T20:47:12.396Z,0.95
2018-06-30T20:49:47.010Z,1.33
2018-06-30T20:52:20.411Z,0.90
2018-06-30T20:54:51.921Z,0.93
2018-06-30T20:57:23.307Z,1.15
2018-06-30T20:59:56.227Z,1.10
2018-06-30T21:02:25.741Z,1.10
2018-06-30T21:04:58.717Z,1.00
2018-06-30T21:07:28.707Z,0.80
2018-06-30T21:10:00.167Z,1.00
2018-06-30T21:12:31.567Z,1.10
2018-06-30T21:15:05.398Z,1.02
2018-06-30T21:17:39.050Z,0.93
2018-06-30T21:20:10.723Z,1.10
2018-06-30T21:22:43.508Z,0.90
2018-06-30T21:25:16.682Z,0.98
2018-06-30T21:27:47.462Z,0.95
2018-06-30T21:30:19.526Z,0.80
2018-06-30T21:32:50.446Z,0.90
2018-06-30T21:35:24.313Z,1.02
2018-06-30T21:37:56.071Z,0.75
2018-06-30T21:40:27.718Z,1.00
2018-06-30T21:42:59.683Z,0.95
2018-06-30T21:45:34.137Z,0.85
2018-06-30T21:48:06.947Z,1.00
2018-06-30T21:50:39.098Z,0.90
2018-06-30T21:53:12.018Z,1.02
2018-06-30T21:55:43.747Z,0.80
2018-06-30T21:58:15.362Z,0.82
2018-06-30T22:01:07.011Z,1.00
2018-06-30T22:03:38.485Z,0.80
2018-06-30T22:06:11.340Z,0.75
2018-06-30T22:08:41.804Z,0.77
2018-06-30T22:11:14.006Z,0.70
2018-06-30T22:13:45.543Z,0.98
2018-06-30T22:16:17.135Z,1.08
2018-06-30T22:18:48.633Z,0.98
2018-06-30T22:21:18.760Z,0.73
2018-06-30T22:23:50.503Z,1.08
2018-06-30T22:26:25.209Z,0.95
2018-06-30T22:28:55.219Z,1.10
2018-06-30T22:31:26.913Z,1.17
2018-06-30T22:34:01.708Z,1.23
2018-06-30T22:36:34.053Z,1.20
2018-06-30T22:39:05.487Z,1.10
2018-06-30T22:41:37.047Z,1.10
2018-06-30T22:44:08.720Z,0.90
2018-06-30T22:46:43.136Z,1.12
2018-06-30T22:49:14.510Z,1.10
2018-06-30T22:51:45.901Z,1.10
2018-06-30T22:54:15.912Z,1.20
2018-06-30T22:56:47.282Z,1.25
2018-06-30T22:59:20.204Z,1.15
2018-06-30T23:01:54.553Z,0.93
2018-06-30T23:04:29.308Z,1.15
2018-06-30T23:07:00.379Z,1.00
2018-06-30T23:09:33.354Z,1.20
2018-06-30T23:12:05.969Z,0.90
2018-06-30T23:14:37.375Z,1.00
2018-06-30T23:17:10.710Z,1.10
2018-06-30T23:19:42.146Z,1.02
2018-06-30T23:22:13.620Z,1.73
2018-06-30T23:24:45.878Z,1.30
2018-06-30T23:27:18.367Z,1.33
2018-06-30T23:29:48.854Z,1.00
2018-06-30T23:32:23.678Z,0.77
2018-06-30T23:34:55.095Z,0.90
2018-06-30T23:37:26.620Z,1.30
2018-06-30T23:39:58.813Z,1.20
2018-06-30T23:42:28.981Z,1.15
2018-06-30T23:45:00.447Z,1.17
2018-06-30T23:47:33.887Z,1.37
2018-06-30T23:50:05.480Z,1.20
2018-06-30T23:52:39.223Z,1.30
2018-06-30T23:55:12.773Z,1.50
2018-06-30T23:57:45.635Z,1.20
